Time;durP1;ratioP1;P1;durP2;ratioP2;P2;SDS_P1;SDS_P2;PMS_P1;PMS_P2;Temp;Humidity;BMP_temperature;BMP_pressure;BME280_temperature;BME280_humidity;BME280_pressure;Samples;Min_cycle;Max_cycle;Signal;HPM_P1;HPM_P2
2022/06/10 00:01:50;;;;;;;;;;;;;;;19.75;75.46;100152.47;4901376;29;19919;-86
2022/06/10 00:04:17;;;;;;;;;;;;;;;19.80;75.17;100155.31;4916825;29;19930;-85
2022/06/10 00:06:46;;;;;;;;;;;;;;;19.81;75.22;100159.72;4913800;29;20730;-85
2022/06/10 00:09:12;;;;;;;;;;;;;;;19.78;75.29;100154.72;4920177;29;20034;-85
2022/06/10 00:11:38;;;;;;;;;;;;;;;19.79;75.24;100156.41;4908181;29;20351;-85
2022/06/10 00:14:03;;;;;;;;;;;;;;;19.82;74.96;100150.47;4915708;29;19967;-85
2022/06/10 00:16:29;;;;;;;;;;;;;;;19.82;75.04;100145.81;4925578;29;20009;-85
2022/06/10 00:18:56;;;;;;;;;;;;;;;19.80;75.25;100150.69;4916880;29;20404;-85
2022/06/10 00:21:25;;;;;;;;;;;;;;;19.80;75.18;100147.13;4916195;29;19919;-85
2022/06/10 00:23:51;;;;;;;;;;;;;;;19.84;74.92;100148.34;4899032;29;20281;-85
2022/06/10 00:26:26;;;;;;;;;;;;;;;19.67;75.57;100150.06;4898338;29;20011;-85
2022/06/10 00:28:51;;;;;;;;;;;;;;;19.75;75.35;100144.28;4896917;29;19979;-85
2022/06/10 00:31:26;;;;;;;;;;;;;;;19.81;75.17;100151.53;4920825;29;20347;-85
2022/06/10 00:33:52;;;;;;;;;;;;;;;19.87;75.19;100145.13;4915661;29;20384;-85
2022/06/10 00:36:18;;;;;;;;;;;;;;;19.91;74.99;100151.78;4901906;29;19919;-84
2022/06/10 00:38:46;;;;;;;;;;;;;;;20.00;74.64;100150.38;4898900;29;19927;-84
2022/06/10 00:41:15;;;;;;;;;;;;;;;19.93;75.24;100149.66;4919628;29;19914;-83
2022/06/10 00:43:41;;;;;;;;;;;;;;;20.03;74.55;100144.44;4925592;29;19929;-84
2022/06/10 00:46:19;;;;;;;;;;;;;;;20.00;74.75;100141.38;4915634;29;19971;-84
2022/06/10 00:48:49;;;;;;;;;;;;;;;20.09;74.41;100152.75;4900452;29;19965;-84
2022/06/10 00:51:33;;;;;;;;;;;;;;;20.10;74.36;100154.41;4905616;29;19948;-84
2022/06/10 00:54:02;;;;;;;;;;;;;;;19.97;74.84;100148.13;4916859;29;19979;-84
2022/06/10 00:56:27;;;;;;;;;;;;;;;19.96;75.04;100154.63;4907374;29;19924;-83
2022/06/10 00:59:01;;;;;;;;;;;;;;;19.91;75.21;100151.78;4917165;29;19915;-84
2022/06/10 01:01:26;;;;;;;;;;;;;;;19.98;74.92;100147.03;4919630;29;19927;-85
2022/06/10 01:03:53;;;;;;;;;;;;;;;20.02;74.93;100152.88;4925318;29;19927;-83
2022/06/10 01:06:18;;;;;;;;;;;;;;;19.97;75.12;100153.59;4921149;29;19930;-85
2022/06/10 01:08:48;;;;;;;;;;;;;;;19.99;75.05;100142.41;4907725;29;19931;-85
2022/06/10 01:11:33;;;;;;;;;;;;;;;20.11;74.63;100147.88;4907577;29;19931;-85
2022/06/10 01:14:05;;;;;;;;;;;;;;;20.19;74.31;100153.00;4907443;29;20014;-85
2022/06/10 01:16:41;;;;;;;;;;;;;;;20.18;74.10;100146.72;4903742;29;19915;-86
2022/06/10 01:19:10;;;;;;;;;;;;;;;20.11;74.75;100145.16;4906311;29;19949;-85
2022/06/10 01:21:54;;;;;;;;;;;;;;;20.12;74.55;100144.94;4911202;29;19926;-85
2022/06/10 01:24:25;;;;;;;;;;;;;;;20.11;74.61;100147.88;4898659;29;19916;-85
2022/06/10 01:29:42;;;;;;;;;;;;;;;20.15;74.78;100147.19;4878078;29;19915;-84
2022/06/10 01:32:12;;;;;;;;;;;;;;;20.03;75.07;100147.16;4898232;29;20404;-83
2022/06/10 01:34:46;;;;;;;;;;;;;;;20.02;75.16;100142.78;4909723;29;19931;-83
2022/06/10 01:37:18;;;;;;;;;;;;;;;20.06;75.14;100147.75;4878461;29;19919;-86
2022/06/10 01:39:47;;;;;;;;;;;;;;;20.12;74.83;100147.66;4912596;29;20358;-83
2022/06/10 01:42:22;;;;;;;;;;;;;;;20.16;74.75;100150.75;4915493;29;19923;-82
2022/06/10 01:45:02;;;;;;;;;;;;;;;20.22;74.37;100153.34;4906309;29;19915;-84
2022/06/10 01:48:01;;;;;;;;;;;;;;;20.27;74.02;100146.34;4906102;29;19931;-85
2022/06/10 01:50:50;;;;;;;;;;;;;;;20.22;74.06;100155.25;4911940;29;20002;-85
2022/06/10 01:53:38;;;;;;;;;;;;;;;20.21;74.00;100151.69;4920268;29;20823;-83
2022/06/10 01:56:11;;;;;;;;;;;;;;;20.22;74.15;100144.34;4878177;29;19923;-83
2022/06/10 01:58:40;;;;;;;;;;;;;;;20.27;73.65;100147.19;4898240;29;19919;-83
2022/06/10 02:01:10;;;;;;;;;;;;;;;20.23;73.89;100148.75;4910501;29;20377;-83
2022/06/10 02:04:00;;;;;;;;;;;;;;;20.19;73.94;100142.91;4892732;29;19942;-83
2022/06/10 02:06:31;;;;;;;;;;;;;;;20.17;74.12;100138.75;4901193;29;19919;-86
2022/06/10 02:08:58;;;;;;;;;;;;;;;20.18;74.11;100138.53;4896827;29;19927;-86
2022/06/10 02:11:25;;;;;;;;;;;;;;;20.19;73.92;100142.91;4896509;29;20392;-86
2022/06/10 02:13:55;;;;;;;;;;;;;;;20.16;74.07;100142.56;4912501;29;20315;-85
2022/06/10 02:16:23;;;;;;;;;;;;;;;20.11;74.21;100147.88;4897403;29;19915;-85
2022/06/10 02:18:51;;;;;;;;;;;;;;;20.17;73.78;100147.78;4914297;29;19927;-85
2022/06/10 02:21:35;;;;;;;;;;;;;;;20.14;74.06;100141.97;4929318;29;20016;-84
2022/06/10 02:24:05;;;;;;;;;;;;;;;20.13;74.07;100153.94;4913031;29;19919;-83
2022/06/10 02:26:31;;;;;;;;;;;;;;;20.16;74.17;100156.22;4896512;29;20001;-83
2022/06/10 02:28:57;;;;;;;;;;;;;;;20.18;73.98;100159.50;4881664;29;20073;-83
2022/06/10 02:31:25;;;;;;;;;;;;;;;20.24;73.84;100162.13;4915862;29;19919;-83
2022/06/10 02:33:51;;;;;;;;;;;;;;;20.28;73.77;100164.41;4913928;29;20018;-83
2022/06/10 02:36:19;;;;;;;;;;;;;;;20.28;73.68;100159.78;4896870;29;19919;-83
2022/06/10 02:38:45;;;;;;;;;;;;;;;20.33;73.72;100165.34;4897877;29;19946;-83
2022/06/10 02:41:16;;;;;;;;;;;;;;;20.35;73.64;100163.22;4914010;29;20255;-84
2022/06/10 02:43:56;;;;;;;;;;;;;;;20.37;73.56;100162.94;4916016;29;19919;-83
2022/06/10 02:46:33;;;;;;;;;;;;;;;20.37;73.50;100169.28;4919034;29;19966;-84
2022/06/10 02:49:04;;;;;;;;;;;;;;;20.22;73.97;100175.19;4902941;29;19919;-85
2022/06/10 02:51:29;;;;;;;;;;;;;;;20.31;73.84;100175.66;4902117;29;19974;-83
2022/06/10 02:53:55;;;;;;;;;;;;;;;20.39;73.51;100182.66;4928225;29;19943;-83
2022/06/10 02:56:23;;;;;;;;;;;;;;;20.33;73.76;100180.91;4919541;29;19919;-84
2022/06/10 03:01:38;;;;;;;;;;;;;;;20.43;73.46;100186.59;4904717;29;19940;-83
2022/06/10 03:04:11;;;;;;;;;;;;;;;20.41;73.56;100183.25;4916989;29;20399;-82
2022/06/10 03:06:40;;;;;;;;;;;;;;;20.38;73.80;100187.28;4916897;29;20393;-84
2022/06/10 03:09:08;;;;;;;;;;;;;;;20.36;73.69;100186.69;4900028;29;20392;-84
2022/06/10 03:12:01;;;;;;;;;;;;;;;20.25;73.93;100184.78;4898219;29;19916;-84
2022/06/10 03:14:41;;;;;;;;;;;;;;;20.37;73.62;100173.88;4888533;29;19982;-85
2022/06/10 03:17:28;;;;;;;;;;;;;;;20.48;73.25;100177.69;4897842;29;19915;-84
2022/06/10 03:20:14;;;;;;;;;;;;;;;20.51;73.18;100186.25;4913164;29;19941;-85
2022/06/10 03:22:46;;;;;;;;;;;;;;;20.52;73.38;100187.06;4903737;29;19947;-84
2022/06/10 03:25:25;;;;;;;;;;;;;;;20.61;73.03;100188.41;4898940;29;19919;-84
2022/06/10 03:27:59;;;;;;;;;;;;;;;20.69;72.86;100189.94;4895137;29;20030;-84
2022/06/10 03:30:30;;;;;;;;;;;;;;;20.70;72.71;100195.16;4899551;29;19920;-84
2022/06/10 03:33:31;;;;;;;;;;;;;;;20.71;72.44;100191.34;4899325;29;19919;-85
2022/06/10 03:36:01;;;;;;;;;;;;;;;20.82;72.07;100190.50;4861268;29;19924;-84
2022/06/10 03:38:31;;;;;;;;;;;;;;;20.87;71.71;100187.06;4889223;29;19967;-88
2022/06/10 03:40:57;;;;;;;;;;;;;;;20.87;71.83;100187.06;4896211;29;20523;-87
2022/06/10 03:43:26;;;;;;;;;;;;;;;20.86;71.71;100179.91;4901653;29;19918;-84
2022/06/10 03:45:52;;;;;;;;;;;;;;;20.98;71.17;100188.13;4919915;29;19975;-85
2022/06/10 03:48:18;;;;;;;;;;;;;;;20.97;71.06;100187.25;4893840;29;19979;-87
2022/06/10 03:50:47;;;;;;;;;;;;;;;20.92;71.32;100184.44;4897904;29;19923;-87
2022/06/10 03:53:14;;;;;;;;;;;;;;;20.96;71.18;100188.34;4894571;29;19930;-86
2022/06/10 03:55:41;;;;;;;;;;;;;;;20.98;71.31;100188.94;4910208;29;19987;-85
2022/06/10 03:58:09;;;;;;;;;;;;;;;20.93;71.58;100185.25;4919357;29;19931;-84
2022/06/10 04:00:35;;;;;;;;;;;;;;;21.04;70.93;100195.34;4890378;29;20021;-84
2022/06/10 04:03:01;;;;;;;;;;;;;;;21.13;70.87;100196.63;4891036;29;19958;-85
2022/06/10 04:05:26;;;;;;;;;;;;;;;21.17;70.45;100197.81;4898287;29;20436;-85
2022/06/10 04:07:52;;;;;;;;;;;;;;;21.36;69.99;100200.38;4898747;29;20316;-85
2022/06/10 04:10:21;;;;;;;;;;;;;;;21.52;69.31;100194.16;4897366;29;19971;-84
2022/06/10 04:12:46;;;;;;;;;;;;;;;21.32;69.26;100205.47;4916315;29;19923;-85
2022/06/10 04:15:16;;;;;;;;;;;;;;;21.46;69.34;100200.59;4907826;29;19945;-84
2022/06/10 04:17:45;;;;;;;;;;;;;;;21.23;69.55;100202.28;4914426;29;19918;-84
2022/06/10 04:20:17;;;;;;;;;;;;;;;21.46;68.81;100208.78;4894901;29;20844;-87
2022/06/10 04:22:43;;;;;;;;;;;;;;;21.50;68.64;100202.59;4918213;29;19923;-85
2022/06/10 04:25:13;;;;;;;;;;;;;;;21.67;67.98;100213.56;4888111;29;19919;-85
2022/06/10 04:27:38;;;;;;;;;;;;;;;22.00;67.41;100198.28;4919187;29;20356;-85
2022/06/10 04:30:19;;;;;;;;;;;;;;;21.95;66.77;100192.72;4916846;29;19919;-87
2022/06/10 04:32:46;;;;;;;;;;;;;;;22.22;65.71;100203.03;4921536;29;19987;-87
2022/06/10 04:35:14;;;;;;;;;;;;;;;22.45;65.39;100205.63;4920187;29;19919;-87
2022/06/10 04:37:41;;;;;;;;;;;;;;;22.69;64.18;100205.44;4914785;29;20304;-84
2022/06/10 04:40:09;;;;;;;;;;;;;;;23.02;63.15;100214.69;4900588;29;19927;-85
2022/06/10 04:42:42;;;;;;;;;;;;;;;23.12;62.21;100212.06;4901972;29;19922;-85
2022/06/10 04:45:09;;;;;;;;;;;;;;;23.27;61.80;100209.50;4919328;29;19977;-84
2022/06/10 04:47:34;;;;;;;;;;;;;;;23.57;61.38;100206.25;4932493;29;19923;-83
2022/06/10 04:50:01;;;;;;;;;;;;;;;23.93;60.94;100206.66;4904721;29;20339;-82
2022/06/10 04:52:30;;;;;;;;;;;;;;;24.04;59.53;100204.81;4913692;29;19970;-84
2022/06/10 04:54:55;;;;;;;;;;;;;;;24.30;58.54;100211.34;4929455;29;20325;-83
2022/06/10 04:57:22;;;;;;;;;;;;;;;24.50;57.15;100215.38;4927001;29;19919;-83
2022/06/10 04:59:48;;;;;;;;;;;;;;;24.57;57.60;100211.31;4897776;29;20339;-85
2022/06/10 05:02:15;;;;;;;;;;;;;;;24.60;57.01;100231.94;4915952;29;20010;-85
2022/06/10 05:04:41;;;;;;;;;;;;;;;24.57;57.43;100229.72;4915460;29;19919;-85
2022/06/10 05:07:07;;;;;;;;;;;;;;;24.59;56.49;100230.28;4927358;29;20423;-86
2022/06/10 05:09:32;;;;;;;;;;;;;;;24.61;57.55;100237.19;4897145;29;19926;-84
2022/06/10 05:11:59;;;;;;;;;;;;;;;24.99;55.71;100235.19;4917153;29;20376;-81
2022/06/10 05:14:24;;;;;;;;;;;;;;;24.99;56.22;100246.19;4911065;29;19915;-83
2022/06/10 05:16:51;;;;;;;;;;;;;;;24.96;55.86;100244.00;4897520;29;19929;-83
2022/06/10 05:19:17;;;;;;;;;;;;;;;24.84;55.97;100238.69;4915584;29;19947;-82
2022/06/10 05:21:43;;;;;;;;;;;;;;;24.96;55.97;100241.25;4915133;29;19926;-81
2022/06/10 05:24:14;;;;;;;;;;;;;;;24.90;56.13;100242.28;4916059;29;20241;-81
2022/06/10 05:26:43;;;;;;;;;;;;;;;25.15;55.56;100249.88;4913223;29;20014;-84
2022/06/10 05:29:10;;;;;;;;;;;;;;;25.55;54.46;100250.34;4881929;29;19962;-82
2022/06/10 05:31:38;;;;;;;;;;;;;;;25.68;52.69;100252.53;4899245;29;19919;-83
2022/06/10 05:36:51;;;;;;;;;;;;;;;25.55;53.48;100253.09;4914315;29;19963;-84
2022/06/10 05:39:18;;;;;;;;;;;;;;;25.57;53.07;100262.72;4919006;29;20360;-83
2022/06/10 05:44:27;;;;;;;;;;;;;;;24.99;53.94;100257.19;4910828;29;19955;-86
2022/06/10 05:46:57;;;;;;;;;;;;;;;24.86;53.96;100257.66;4920454;29;19915;-85
2022/06/10 05:49:22;;;;;;;;;;;;;;;24.61;54.79;100261.09;4925047;29;19923;-84
2022/06/10 05:51:47;;;;;;;;;;;;;;;24.13;56.07;100271.91;4918998;29;20100;-84
2022/06/10 05:54:13;;;;;;;;;;;;;;;23.97;57.29;100267.34;4902714;29;19915;-84
2022/06/10 05:56:40;;;;;;;;;;;;;;;23.60;58.30;100273.53;4904667;29;19958;-84
2022/06/10 05:59:06;;;;;;;;;;;;;;;23.58;58.60;100273.78;4910888;29;20352;-82
2022/06/10 06:01:31;;;;;;;;;;;;;;;23.29;59.73;100269.56;4902920;29;19919;-84
2022/06/10 06:03:57;;;;;;;;;;;;;;;23.36;59.99;100276.50;4899890;29;19967;-84
2022/06/10 06:06:22;;;;;;;;;;;;;;;23.37;59.58;100275.44;4898705;29;19919;-83
2022/06/10 06:08:52;;;;;;;;;;;;;;;23.46;59.52;100281.31;4915223;29;20384;-85
2022/06/10 06:11:19;;;;;;;;;;;;;;;23.46;59.97;100283.22;4914303;29;19971;-84
2022/06/10 06:13:45;;;;;;;;;;;;;;;23.73;59.10;100278.59;4914634;29;20446;-83
2022/06/10 06:16:11;;;;;;;;;;;;;;;23.72;59.04;100282.44;4922364;29;19914;-84
2022/06/10 06:18:38;;;;;;;;;;;;;;;23.68;58.98;100283.22;4916797;29;19923;-83
2022/06/10 06:21:05;;;;;;;;;;;;;;;24.05;57.97;100286.13;4912193;29;19973;-84
2022/06/10 06:23:41;;;;;;;;;;;;;;;23.91;58.13;100284.88;4914954;29;19962;-83
2022/06/10 06:26:11;;;;;;;;;;;;;;;23.85;58.03;100288.66;4909956;29;20329;-86
2022/06/10 06:28:36;;;;;;;;;;;;;;;23.88;57.62;100299.09;4911339;29;20384;-88
2022/06/10 06:31:04;;;;;;;;;;;;;;;23.73;57.72;100295.06;4899708;29;19926;-85
2022/06/10 06:33:32;;;;;;;;;;;;;;;23.70;58.51;100292.84;4917515;29;20022;-84
2022/06/10 06:35:59;;;;;;;;;;;;;;;23.72;58.10;100298.91;4915494;29;20047;-85
2022/06/10 06:38:26;;;;;;;;;;;;;;;23.68;58.32;100303.25;4902732;29;19918;-86
2022/06/10 06:40:52;;;;;;;;;;;;;;;23.75;58.62;100303.09;4890870;29;19923;-86
2022/06/10 06:43:20;;;;;;;;;;;;;;;23.78;58.42;100303.38;4899224;29;19923;-85
2022/06/10 06:45:45;;;;;;;;;;;;;;;23.75;58.03;100303.91;4913734;29;19927;-85
2022/06/10 06:48:11;;;;;;;;;;;;;;;23.41;59.24;100307.84;4900514;29;19962;-84
2022/06/10 06:50:43;;;;;;;;;;;;;;;23.15;60.11;100305.56;4908402;29;19923;-86
2022/06/10 06:53:09;;;;;;;;;;;;;;;23.13;60.13;100312.41;4902701;29;20466;-87
2022/06/10 06:55:37;;;;;;;;;;;;;;;22.74;61.86;100315.91;4915610;29;19961;-83
2022/06/10 06:58:03;;;;;;;;;;;;;;;22.73;61.58;100311.53;4901805;29;19919;-86
2022/06/10 07:00:32;;;;;;;;;;;;;;;22.65;62.22;100322.91;4925570;29;19947;-85
2022/06/10 07:03:04;;;;;;;;;;;;;;;22.87;61.35;100320.22;4911571;29;19919;-85
2022/06/10 07:05:35;;;;;;;;;;;;;;;23.04;61.13;100316.66;4898548;29;19915;-87
2022/06/10 07:08:05;;;;;;;;;;;;;;;23.02;59.96;100321.59;4916667;29;20017;-84
2022/06/10 07:10:30;;;;;;;;;;;;;;;23.14;60.26;100320.38;4917164;29;20039;-87
2022/06/10 07:12:58;;;;;;;;;;;;;;;23.14;59.66;100320.38;4911241;29;19962;-87
2022/06/10 07:15:24;;;;;;;;;;;;;;;23.26;60.38;100317.53;4922257;29;19934;-89
2022/06/10 07:17:53;;;;;;;;;;;;;;;23.34;60.31;100319.00;4919417;29;20408;-88
2022/06/10 07:20:44;;;;;;;;;;;;;;;23.43;60.29;100322.97;4919299;29;19966;-85
2022/06/10 07:23:11;;;;;;;;;;;;;;;23.25;60.11;100320.50;4902630;29;19923;-82
2022/06/10 07:25:42;;;;;;;;;;;;;;;23.44;59.49;100329.31;4915649;29;19915;-84
2022/06/10 07:28:11;;;;;;;;;;;;;;;23.57;57.91;100328.91;4899408;29;19919;-81
2022/06/10 07:30:38;;;;;;;;;;;;;;;23.69;57.52;100331.53;4901202;29;19915;-85
2022/06/10 07:33:16;;;;;;;;;;;;;;;23.67;57.84;100329.06;4905859;29;19961;-87
2022/06/10 07:35:42;;;;;;;;;;;;;;;23.56;58.25;100330.81;4919302;29;19915;-86
2022/06/10 07:38:08;;;;;;;;;;;;;;;23.64;58.17;100345.19;4907022;29;19919;-86
2022/06/10 07:43:22;;;;;;;;;;;;;;;23.65;59.24;100341.34;4925874;29;19928;-87
2022/06/10 07:45:53;;;;;;;;;;;;;;;23.48;59.60;100344.97;4922251;29;19915;-89
2022/06/10 07:48:31;;;;;;;;;;;;;;;23.54;58.41;100351.38;4926498;29;19959;-93
2022/06/10 07:51:02;;;;;;;;;;;;;;;23.10;60.21;100354.88;4997143;23;19922;-89
2022/06/10 07:53:39;;;;;;;;;;;;;;;23.46;59.44;100349.91;5009571;28;19917;-88
2022/06/10 07:56:05;;;;;;;;;;;;;;;23.78;58.74;100352.78;5000677;28;19914;-88
2022/06/10 07:58:30;;;;;;;;;;;;;;;24.36;57.12;100352.34;5012424;28;19918;-88
2022/06/10 08:00:57;;;;;;;;;;;;;;;24.96;55.71;100351.22;5013965;28;19925;-91
2022/06/10 08:03:26;;;;;;;;;;;;;;;24.92;55.51;100358.34;4981562;28;19918;-91
2022/06/10 08:05:54;;;;;;;;;;;;;;;24.73;56.04;100363.41;4979331;28;20376;-89
2022/06/10 08:08:22;;;;;;;;;;;;;;;25.01;55.41;100359.50;4998041;28;19928;-89
2022/06/10 08:10:52;;;;;;;;;;;;;;;25.59;54.22;100361.50;4995258;28;19913;-90
2022/06/10 08:13:19;;;;;;;;;;;;;;;25.55;54.71;100364.00;4996077;28;19918;-92
2022/06/10 08:15:49;;;;;;;;;;;;;;;25.41;55.19;100366.41;4999273;28;19910;-92
2022/06/10 08:18:19;;;;;;;;;;;;;;;25.36;55.55;100377.38;4997941;28;19930;-89
2022/06/10 08:23:41;;;;;;;;;;;;;;;24.94;56.57;100378.16;5030544;28;19904;-93
2022/06/10 08:26:08;;;;;;;;;;;;;;;24.92;56.67;100372.09;5006043;28;19969;-90
2022/06/10 08:28:35;;;;;;;;;;;;;;;24.30;58.26;100376.16;5007037;28;19979;-91
2022/06/10 08:31:04;;;;;;;;;;;;;;;23.75;59.04;100380.75;5013460;28;19977;-92
2022/06/10 08:33:31;;;;;;;;;;;;;;;23.88;59.60;100379.56;5012451;28;19922;-92
2022/06/10 08:35:57;;;;;;;;;;;;;;;23.77;60.06;100386.84;5010218;28;20259;-90
2022/06/10 08:38:28;;;;;;;;;;;;;;;23.57;60.19;100384.59;5009169;28;19941;-91
2022/06/10 08:41:10;;;;;;;;;;;;;;;24.02;59.03;100385.47;5005233;28;19973;-91
2022/06/10 08:43:40;;;;;;;;;;;;;;;24.18;58.92;100394.72;5003934;28;19917;-91
2022/06/10 08:46:14;;;;;;;;;;;;;;;23.65;59.24;100401.72;5006088;28;20020;-94
2022/06/10 08:51:44;;;;;;;;;;;;;;;24.46;57.04;100407.38;5033770;28;20046;-95
2022/06/10 08:54:19;;;;;;;;;;;;;;;24.47;56.65;100402.72;4999976;28;20370;-91
2022/06/10 08:56:53;;;;;;;;;;;;;;;24.47;56.88;100398.09;5005454;28;19958;-89
2022/06/10 08:59:25;;;;;;;;;;;;;;;24.53;56.05;100396.22;5021169;28;19929;-90
2022/06/10 09:02:02;;;;;;;;;;;;;;;24.29;56.76;100401.16;5026582;28;19925;-90
2022/06/10 09:04:32;;;;;;;;;;;;;;;23.88;57.68;100400.66;5003978;28;19967;-91
2022/06/10 09:07:12;;;;;;;;;;;;;;;23.30;59.72;100400.97;5012782;28;19913;-89
2022/06/10 09:09:44;;;;;;;;;;;;;;;22.89;60.70;100397.53;5009331;28;19941;-90
2022/06/10 09:12:32;;;;;;;;;;;;;;;22.94;60.89;100392.16;5012348;28;20400;-89
2022/06/10 09:15:12;;;;;;;;;;;;;;;23.08;60.75;100395.41;5005326;28;19913;-90
2022/06/10 09:17:49;;;;;;;;;;;;;;;23.00;60.67;100397.75;4997436;28;19918;-92
2022/06/10 09:20:46;;;;;;;;;;;;;;;22.99;61.32;100409.78;5012029;28;20032;-89
2022/06/10 09:23:25;;;;;;;;;;;;;;;22.86;61.64;100410.94;5020443;28;19988;-92
2022/06/10 09:25:50;;;;;;;;;;;;;;;22.97;60.85;100413.59;5000946;28;19909;-87
2022/06/10 09:28:18;;;;;;;;;;;;;;;22.53;61.56;100416.13;5013978;28;19928;-90
2022/06/10 09:30:58;;;;;;;;;;;;;;;22.14;62.97;100406.84;5014293;28;19918;-89
2022/06/10 09:33:34;;;;;;;;;;;;;;;22.34;63.19;100409.19;5010182;28;20301;-89
2022/06/10 09:36:05;;;;;;;;;;;;;;;22.49;65.88;100405.91;4992112;28;19927;-87
2022/06/10 09:38:49;;;;;;;;;;;;;;;22.11;67.05;100418.28;4978054;28;19923;-84
2022/06/10 09:41:22;;;;;;;;;;;;;;;21.12;70.23;100419.09;5015566;28;19921;-87
2022/06/10 09:44:00;;;;;;;;;;;;;;;21.02;72.34;100422.41;5015557;28;19940;-89
2022/06/10 09:46:29;;;;;;;;;;;;;;;20.99;73.93;100425.59;4997380;28;19976;-86
2022/06/10 09:49:14;;;;;;;;;;;;;;;20.63;73.38;100435.63;4996534;28;19921;-87
2022/06/10 09:51:45;;;;;;;;;;;;;;;20.51;74.41;100429.28;5013471;28;19928;-87
2022/06/10 09:54:14;;;;;;;;;;;;;;;20.60;75.13;100436.09;5014512;28;19924;-86
2022/06/10 09:56:43;;;;;;;;;;;;;;;20.48;74.20;100434.34;4994143;28;20416;-87
2022/06/10 09:59:23;;;;;;;;;;;;;;;20.44;75.31;100440.28;5010500;28;19925;-85
2022/06/10 10:02:11;;;;;;;;;;;;;;;20.73;70.64;100435.06;5019801;28;19914;-86
2022/06/10 10:04:41;;;;;;;;;;;;;;;20.77;70.51;100438.16;4998084;28;20020;-88
2022/06/10 10:07:08;;;;;;;;;;;;;;;21.00;70.70;100440.94;5018609;28;19913;-90
2022/06/10 10:09:41;;;;;;;;;;;;;;;21.24;69.82;100447.28;4999481;28;19917;-86
2022/06/10 10:12:12;;;;;;;;;;;;;;;21.58;70.25;100450.25;5018464;28;20072;-87
2022/06/10 10:14:45;;;;;;;;;;;;;;;21.91;67.37;100443.31;4984795;28;20374;-84
2022/06/10 10:17:19;;;;;;;;;;;;;;;22.60;66.29;100450.75;4994549;28;20382;-92
2022/06/10 10:19:48;;;;;;;;;;;;;;;23.45;62.48;100440.69;5013005;28;19917;-85
2022/06/10 10:22:47;;;;;;;;;;;;;;;23.90;61.17;100443.25;5005896;28;19917;-86
2022/06/10 10:25:21;;;;;;;;;;;;;;;24.86;58.42;100444.63;4993206;28;19932;-87
2022/06/10 10:27:46;;;;;;;;;;;;;;;26.07;54.29;100439.41;4996718;28;19918;-86
2022/06/10 10:30:31;;;;;;;;;;;;;;;26.56;52.92;100429.94;4978155;28;19925;-85
2022/06/10 10:33:10;;;;;;;;;;;;;;;26.65;52.56;100440.16;5010375;28;19921;-86
2022/06/10 10:35:38;;;;;;;;;;;;;;;26.74;51.87;100437.69;5005628;28;19913;-87
2022/06/10 10:38:28;;;;;;;;;;;;;;;27.14;53.34;100428.59;5012066;28;19925;-90
2022/06/10 10:40:55;;;;;;;;;;;;;;;27.69;50.13;100433.50;4995306;28;20511;-87
2022/06/10 10:43:21;;;;;;;;;;;;;;;28.65;48.96;100438.91;4974335;28;19917;-87
2022/06/10 10:46:02;;;;;;;;;;;;;;;29.04;48.26;100430.56;5011199;28;20315;-89
2022/06/10 10:48:45;;;;;;;;;;;;;;;29.22;45.88;100432.66;5010006;28;20004;-89
2022/06/10 10:51:43;;;;;;;;;;;;;;;29.52;45.74;100432.63;4987317;28;20381;-87
2022/06/10 10:54:17;;;;;;;;;;;;;;;28.12;48.17;100422.84;4992452;28;20398;-89
2022/06/10 10:56:47;;;;;;;;;;;;;;;27.51;49.73;100421.97;4983446;28;19921;-88
2022/06/10 10:59:40;;;;;;;;;;;;;;;26.93;51.07;100426.97;4983941;28;19926;-89
2022/06/10 11:02:28;;;;;;;;;;;;;;;27.05;52.12;100419.22;5001788;28;19925;-88
2022/06/10 11:05:18;;;;;;;;;;;;;;;26.72;52.18;100415.91;5002790;28;19921;-86
2022/06/10 11:07:43;;;;;;;;;;;;;;;26.97;51.03;100417.00;4999474;28;19924;-87
2022/06/10 11:10:20;;;;;;;;;;;;;;;26.64;51.80;100424.72;4979125;28;19914;-88
2022/06/10 11:12:46;;;;;;;;;;;;;;;26.21;50.87;100407.50;4995521;28;19917;-88
2022/06/10 11:15:16;;;;;;;;;;;;;;;25.88;51.46;100415.09;4987932;28;19968;-86
2022/06/10 11:17:46;;;;;;;;;;;;;;;25.98;51.95;100410.75;4998526;28;20448;-93
2022/06/10 11:20:15;;;;;;;;;;;;;;;26.10;52.00;100408.56;4989746;28;19996;-88
2022/06/10 11:22:49;;;;;;;;;;;;;;;25.98;51.07;100405.22;4994695;28;19933;-89
2022/06/10 11:25:22;;;;;;;;;;;;;;;25.96;51.74;100412.94;4998659;28;19913;-90
2022/06/10 11:27:58;;;;;;;;;;;;;;;25.82;51.83;100407.06;5004799;28;19921;-89
2022/06/10 11:30:42;;;;;;;;;;;;;;;25.83;52.05;100411.47;5006909;28;19914;-87
2022/06/10 11:33:19;;;;;;;;;;;;;;;26.52;49.89;100410.31;5015554;28;19921;-88
2022/06/10 11:36:13;;;;;;;;;;;;;;;26.90;48.47;100409.03;4994213;28;19953;-87
2022/06/10 11:38:51;;;;;;;;;;;;;;;26.50;48.50;100412.53;5012525;28;19959;-89
2022/06/10 11:41:43;;;;;;;;;;;;;;;26.66;49.22;100414.22;5014515;28;19918;-85
2022/06/10 11:44:38;;;;;;;;;;;;;;;27.10;47.99;100418.41;5015307;28;19913;-89
2022/06/10 11:47:09;;;;;;;;;;;;;;;27.08;48.15;100413.13;5011915;28;19918;-91
2022/06/10 11:49:55;;;;;;;;;;;;;;;26.54;49.79;100413.69;5007062;28;20008;-94
2022/06/10 11:52:54;;;;;;;;;;;;;;;26.32;49.94;100428.47;5027010;28;19901;-90
2022/06/10 11:55:45;;;;;;;;;;;;;;;25.97;52.06;100422.88;5009899;28;19953;-87
2022/06/10 12:01:06;;;;;;;;;;;;;;;25.44;52.91;100426.38;5006251;28;19945;-92
2022/06/10 12:03:48;;;;;;;;;;;;;;;25.42;53.45;100420.31;5009996;28;19944;-86
2022/06/10 12:06:36;;;;;;;;;;;;;;;24.90;54.43;100429.25;5007479;28;19922;-90
2022/06/10 12:09:09;;;;;;;;;;;;;;;25.24;53.80;100418.03;4989264;28;19957;-89
2022/06/10 12:11:46;;;;;;;;;;;;;;;25.08;54.88;100418.97;5027520;28;19917;-91
2022/06/10 12:14:22;;;;;;;;;;;;;;;25.27;53.80;100418.31;5029151;28;19917;-85
2022/06/10 12:16:51;;;;;;;;;;;;;;;25.49;53.83;100420.91;4990829;28;19913;-91
2022/06/10 12:19:20;;;;;;;;;;;;;;;25.06;55.27;100433.78;5007341;28;19921;-87
2022/06/10 12:21:45;;;;;;;;;;;;;;;24.83;55.61;100425.91;4981983;28;19913;-87
2022/06/10 12:24:15;;;;;;;;;;;;;;;24.78;55.03;100420.38;4985717;28;19924;-92
2022/06/10 12:26:49;;;;;;;;;;;;;;;24.75;55.34;100416.22;5020285;28;19980;-91
2022/06/10 12:29:20;;;;;;;;;;;;;;;24.61;54.75;100410.31;5020210;28;19913;-91
2022/06/10 12:32:05;;;;;;;;;;;;;;;24.36;56.43;100413.59;5020488;28;19989;-93
2022/06/10 12:34:58;;;;;;;;;;;;;;;24.79;55.87;100416.50;5015648;28;19948;-89
2022/06/10 12:37:23;;;;;;;;;;;;;;;24.63;55.61;100412.78;5002567;28;19917;-93
2022/06/10 12:40:04;;;;;;;;;;;;;;;24.53;56.13;100423.69;5009764;28;19969;-88
2022/06/10 12:42:29;;;;;;;;;;;;;;;24.48;57.36;100416.22;5015739;28;19925;-88
2022/06/10 12:45:01;;;;;;;;;;;;;;;24.59;56.81;100423.47;5016857;28;19968;-96
2022/06/10 12:47:31;;;;;;;;;;;;;;;24.66;55.48;100428.78;4997683;28;19925;-91
2022/06/10 12:50:02;;;;;;;;;;;;;;;24.64;56.50;100429.03;5016125;28;19976;-91
2022/06/10 12:52:59;;;;;;;;;;;;;;;24.33;56.79;100425.09;5000121;28;19928;-90
2022/06/10 12:55:32;;;;;;;;;;;;;;;23.89;57.95;100421.56;5009726;28;19968;-87
2022/06/10 12:57:58;;;;;;;;;;;;;;;23.88;58.43;100428.97;5016926;28;19918;-87
2022/06/10 13:00:27;;;;;;;;;;;;;;;23.89;58.03;100421.56;4994583;28;19961;-89
2022/06/10 13:02:52;;;;;;;;;;;;;;;23.93;58.84;100420.81;4985576;28;19968;-91
2022/06/10 13:05:31;;;;;;;;;;;;;;;24.08;57.91;100414.66;5014280;28;19902;-90
2022/06/10 13:08:00;;;;;;;;;;;;;;;23.77;58.65;100417.03;5016941;28;19922;-88
2022/06/10 13:10:29;;;;;;;;;;;;;;;23.82;58.99;100412.69;4994362;28;19914;-85
2022/06/10 13:12:58;;;;;;;;;;;;;;;23.88;59.23;100414.41;5000869;28;19924;-91
2022/06/10 13:15:24;;;;;;;;;;;;;;;23.95;58.78;100412.28;5012846;28;20379;-91
2022/06/10 13:18:17;;;;;;;;;;;;;;;23.81;59.55;100406.34;5000884;28;19992;-93
2022/06/10 13:20:46;;;;;;;;;;;;;;;23.68;60.03;100395.72;4993201;28;19925;-89
2022/06/10 13:23:19;;;;;;;;;;;;;;;23.79;59.12;100403.88;4981368;28;19928;-88